Junction City, Ohio
Current Conditions -  °F | °C
As of 1:25 PM on Sunday 25 Jan 2015 (Local Time) from KLHQ Reporting Station
Haze Haze  
Wind Chill: 32°   Ceiling: 600
Heat Index: 37°   Visibility: 2.5mi
Dew Point: 35°   Wind: 7mph
Humidity: 93%   Direction: 80°E
Pressure: 29.74"   Gusts: NA
Location:  39.72°N, 82.3°W
Report Text: KLHQ 251825Z AUTO 08006KT 2 1/2SM UP BR BKN006 OVC050 03/02 A2974 RMK AO2 RAE05UPB05 P0000 T00280017
Loading
Personal Weather Stations






























Interactive Weather Map New forecast layout! Learn more

10-Day Weather Forecast

Advertisements
Track Severe Weather on mobile